Time;durP1;ratioP1;P1;durP2;ratioP2;P2;SDS_P1;SDS_P2;PMS_P1;PMS_P2;Temp;Humidity;BMP_temperature;BMP_pressure;BME280_temperature;BME280_humidity;BME280_pressure;Samples;Min_cycle;Max_cycle;Signal;HPM_P1;HPM_P2
2023/01/12 00:00:05;;;;;;;33.60;19.60;;;;;;;4.26;87.90;100330.39;108910;1273;37079;-74
2023/01/12 00:02:36;;;;;;;33.70;21.20;;;;;;;4.26;88.04;100327.64;108840;1273;37211;-74
2023/01/12 00:05:09;;;;;;;33.60;21.00;;;;;;;4.26;88.05;100327.98;108910;1256;38234;-75
2023/01/12 00:07:43;;;;;;;32.10;20.60;;;;;;;4.25;88.07;100327.48;108922;1254;36954;-74
2023/01/12 00:10:19;;;;;;;33.30;20.40;;;;;;;4.23;88.16;100325.27;108959;1250;37045;-74
2023/01/12 00:12:50;;;;;;;30.60;19.20;;;;;;;4.22;88.50;100328.20;108947;1266;38496;-74
2023/01/12 00:16:33;;;;;;;30.40;19.20;;;;;;;4.23;88.39;100327.31;108941;1273;38264;-76
2023/01/12 00:18:28;;;;;;;30.70;20.00;;;;;;;4.27;88.54;100332.80;108790;1273;175057;-75
2023/01/12 00:20:59;;;;;;;30.40;19.40;;;;;;;4.28;88.88;100333.83;108908;1256;37206;-74
2023/01/12 00:23:29;;;;;;;29.40;19.00;;;;;;;4.27;89.11;100336.07;108830;1257;37551;-75
2023/01/12 00:26:01;;;;;;;28.20;18.10;;;;;;;4.27;89.01;100337.12;108930;1273;37654;-78
2023/01/12 00:28:32;;;;;;;27.90;18.30;;;;;;;4.25;89.11;100340.43;108893;1273;37860;-76
2023/01/12 00:31:06;;;;;;;25.50;17.90;;;;;;;4.25;89.17;100338.36;108891;1255;38502;-75
2023/01/12 00:33:38;;;;;;;26.70;17.30;;;;;;;4.28;89.54;100340.73;108874;1273;36372;-73
2023/01/12 00:36:19;;;;;;;25.30;17.70;;;;;;;4.30;89.33;100340.36;108894;1273;37208;-73
2023/01/12 00:38:53;;;;;;;28.10;18.50;;;;;;;4.33;89.44;100339.45;108856;1262;37038;-74
2023/01/12 00:47:07;;;;;;;25.40;16.10;;;;;;;4.37;89.85;100342.50;108888;1259;36813;-74
2023/01/12 00:49:38;;;;;;;27.10;18.10;;;;;;;4.38;89.87;100347.67;108996;1262;37158;-78
2023/01/12 00:52:11;;;;;;;26.60;18.30;;;;;;;4.40;90.05;100343.70;108888;1251;37217;-77
2023/01/12 00:54:42;;;;;;;26.80;18.00;;;;;;;4.43;90.27;100345.01;108910;1273;37394;-78
2023/01/12 00:57:16;;;;;;;26.50;17.60;;;;;;;4.44;90.41;100346.91;108932;1273;37059;-78
2023/01/12 00:59:48;;;;;;;24.70;17.20;;;;;;;4.45;90.42;100345.52;108881;1250;36173;-73
2023/01/12 01:02:20;;;;;;;23.50;16.50;;;;;;;4.47;90.54;100347.04;108839;1273;36959;-75
2023/01/12 01:04:52;;;;;;;25.20;17.10;;;;;;;4.51;90.61;100344.91;108889;1251;37425;-74
2023/01/12 01:07:24;;;;;;;26.30;17.90;;;;;;;4.55;90.69;100342.27;108994;1253;38039;-74
2023/01/12 01:09:56;;;;;;;26.30;18.00;;;;;;;4.56;90.53;100344.48;109017;1253;37086;-72
2023/01/12 01:12:27;;;;;;;28.70;17.40;;;;;;;4.56;90.69;100341.90;108915;1262;37202;-74
2023/01/12 01:14:59;;;;;;;25.90;16.60;;;;;;;4.58;90.82;100338.09;108864;1251;37054;-73
2023/01/12 01:17:30;;;;;;;26.00;16.00;;;;;;;4.59;90.78;100340.66;108906;1273;37029;-73
2023/01/12 01:20:01;;;;;;;23.80;16.90;;;;;;;4.59;90.92;100342.73;108884;1255;36733;-73
2023/01/12 01:22:32;;;;;;;26.00;17.20;;;;;;;4.60;91.12;100344.09;108974;1255;37523;-74
2023/01/12 01:25:06;;;;;;;24.60;16.40;;;;;;;4.59;91.19;100347.92;108935;1273;37110;-75
2023/01/12 01:27:37;;;;;;;23.10;15.90;;;;;;;4.58;91.03;100346.54;108886;1254;37099;-77
2023/01/12 01:30:13;;;;;;;24.80;16.00;;;;;;;4.59;91.24;100344.64;108890;1262;38041;-75
2023/01/12 01:32:44;;;;;;;25.30;17.00;;;;;;;4.64;91.51;100340.59;108779;1269;37767;-75
2023/01/12 01:35:15;;;;;;;27.40;17.20;;;;;;;4.68;91.54;100329.64;108911;1273;36218;-77
2023/01/12 01:37:47;;;;;;;23.20;16.40;;;;;;;4.71;91.50;100331.16;108899;1273;38287;-78
2023/01/12 01:40:20;;;;;;;26.20;17.10;;;;;;;4.71;91.18;100322.52;108969;1254;37340;-77
2023/01/12 01:42:55;;;;;;;23.90;16.80;;;;;;;4.73;91.48;100325.41;108955;1250;38166;-77
2023/01/12 01:45:29;;;;;;;22.70;15.70;;;;;;;4.76;91.61;100331.08;108921;1257;36223;-75
2023/01/12 01:48:01;;;;;;;25.30;16.50;;;;;;;4.78;91.58;100334.69;108872;1250;35991;-74
2023/01/12 01:50:35;;;;;;;22.90;16.20;;;;;;;4.79;91.66;100333.47;108833;1273;36798;-76
2023/01/12 01:53:08;;;;;;;26.30;17.20;;;;;;;4.80;91.52;100336.73;108890;1257;36107;-75
2023/01/12 01:55:42;;;;;;;24.80;17.20;;;;;;;4.83;91.80;100334.77;108938;1251;37092;-75
2023/01/12 01:58:15;;;;;;;25.70;16.80;;;;;;;4.83;91.61;100336.52;108937;1273;37140;-75
2023/01/12 02:00:46;;;;;;;24.20;16.70;;;;;;;4.86;91.76;100336.45;108917;1262;36995;-77
2023/01/12 02:03:19;;;;;;;26.60;17.30;;;;;;;4.89;91.63;100336.77;108894;1273;36798;-74
2023/01/12 02:05:52;;;;;;;26.20;17.50;;;;;;;4.90;91.80;100335.36;108876;1251;37212;-76
2023/01/12 02:08:29;;;;;;;24.60;16.10;;;;;;;4.90;91.83;100338.99;108877;1273;36141;-76
2023/01/12 02:16:19;;;;;;;24.40;15.50;;;;;;;4.92;91.89;100334.30;108923;1273;37284;-77
2023/01/12 02:16:53;;;;;;;22.70;15.60;;;;;;;4.98;91.96;100334.21;108862;1263;37155;-76
2023/01/12 02:19:45;;;;;;;21.70;15.70;;;;;;;5.03;92.01;100335.86;108892;1255;36837;-76
2023/01/12 02:22:54;;;;;;;23.40;15.40;;;;;;;5.02;92.23;100339.48;108910;1254;37075;-76
2023/01/12 02:25:58;;;;;;;22.40;15.90;;;;;;;4.96;91.94;100339.42;108736;1256;172860;-74
2023/01/12 02:29:26;;;;;;;22.10;15.00;;;;;;;4.97;92.19;100343.73;108759;1273;174964;-76
2023/01/12 02:32:02;;;;;;;21.70;14.70;;;;;;;5.02;92.65;100346.73;108721;1273;37092;-73
2023/01/12 02:34:39;;;;;;;23.30;15.90;;;;;;;5.08;92.40;100342.00;109008;1261;37541;-75
2023/01/12 02:37:22;;;;;;;22.00;15.10;;;;;;;5.11;92.67;100346.60;108848;1262;36973;-74
2023/01/12 02:39:58;;;;;;;21.60;15.40;;;;;;;5.12;92.41;100348.84;108884;1258;37052;-77
2023/01/12 02:42:41;;;;;;;20.80;13.90;;;;;;;5.13;92.41;100351.08;108840;1273;38218;-76
2023/01/12 02:45:33;;;;;;;18.70;14.40;;;;;;;5.16;92.59;100355.16;108879;1251;36969;-73
2023/01/12 02:48:11;;;;;;;21.30;15.00;;;;;;;5.20;92.54;100351.48;108834;1255;37975;-75
2023/01/12 02:50:46;;;;;;;19.70;13.60;;;;;;;5.22;92.44;100350.59;108876;1254;36234;-76
2023/01/12 02:53:21;;;;;;;21.40;14.60;;;;;;;5.25;92.78;100352.44;108915;1273;36026;-76
2023/01/12 02:55:52;;;;;;;19.60;13.80;;;;;;;5.26;92.63;100358.83;108871;1262;37199;-75
2023/01/12 02:58:26;;;;;;;20.10;13.30;;;;;;;5.25;92.62;100363.68;108239;1254;912491;-74
2023/01/12 03:00:58;;;;;;;19.20;13.30;;;;;;;5.28;92.74;100365.71;108734;1268;175000;-76
2023/01/12 03:03:29;;;;;;;20.90;13.60;;;;;;;5.30;92.89;100367.23;108794;1249;172890;-77
2023/01/12 03:06:06;;;;;;;20.50;13.70;;;;;;;5.31;92.84;100365.64;108906;1250;37316;-73
2023/01/12 03:08:38;;;;;;;19.40;12.70;;;;;;;5.33;92.95;100361.30;108879;1254;36975;-73
2023/01/12 03:11:14;;;;;;;19.50;12.70;;;;;;;5.36;92.87;100361.25;108858;1253;37063;-73
2023/01/12 03:13:48;;;;;;;19.30;13.20;;;;;;;5.40;93.03;100368.80;108898;1250;37134;-73
2023/01/12 03:16:21;;;;;;;17.60;13.30;;;;;;;5.43;93.12;100378.44;108888;1259;37077;-74
2023/01/12 03:18:57;;;;;;;20.70;13.40;;;;;;;5.44;92.78;100383.26;108876;1263;37187;-74
2023/01/12 03:21:32;;;;;;;21.40;13.00;;;;;;;5.45;92.96;100387.91;108919;1255;36980;-73
2023/01/12 03:24:09;;;;;;;17.80;12.70;;;;;;;5.47;93.09;100389.45;108765;1260;37073;-73
2023/01/12 03:26:42;;;;;;;15.80;11.40;;;;;;;5.48;93.13;100386.14;108866;1273;38846;-78
2023/01/12 03:29:20;;;;;;;17.80;12.90;;;;;;;5.53;93.24;100383.46;108878;1262;37114;-78
2023/01/12 03:31:59;;;;;;;18.70;13.70;;;;;;;5.56;93.20;100385.64;108862;1256;37047;-75
2023/01/12 03:34:30;;;;;;;18.60;14.20;;;;;;;5.58;93.10;100389.25;108897;1273;37280;-75
2023/01/12 03:37:05;;;;;;;19.00;13.30;;;;;;;5.58;92.90;100386.66;108866;1257;36335;-74
2023/01/12 03:39:43;;;;;;;16.30;12.50;;;;;;;5.58;93.07;100387.34;108853;1250;36075;-77
2023/01/12 03:42:23;;;;;;;17.60;13.00;;;;;;;5.60;93.06;100383.15;108881;1255;37124;-81
2023/01/12 03:44:58;;;;;;;17.60;12.50;;;;;;;5.64;93.05;100384.65;108880;1263;36154;-76
2023/01/12 03:47:30;;;;;;;17.10;13.00;;;;;;;5.64;93.13;100385.85;108864;1262;37149;-76
2023/01/12 03:50:06;;;;;;;18.70;13.30;;;;;;;5.64;93.29;100386.38;108743;1268;36944;-76
2023/01/12 03:52:38;;;;;;;18.30;13.30;;;;;;;5.66;93.20;100389.29;108815;1269;37130;-77
2023/01/12 03:55:14;;;;;;;17.60;12.80;;;;;;;5.68;93.32;100387.86;108618;1264;174954;-74
2023/01/12 03:57:45;;;;;;;19.10;13.50;;;;;;;5.72;93.53;100386.42;108795;1274;36959;-74
2023/01/12 04:00:18;;;;;;;20.40;14.20;;;;;;;5.76;93.40;100381.66;108707;1257;40257;-76
2023/01/12 04:02:52;;;;;;;19.30;13.00;;;;;;;5.79;93.54;100377.47;108792;1255;37672;-73
2023/01/12 04:05:26;;;;;;;19.60;13.70;;;;;;;5.79;93.63;100373.12;108819;1274;36442;-75
2023/01/12 04:07:59;;;;;;;19.70;13.40;;;;;;;5.82;93.50;100375.69;108782;1254;37152;-74
2023/01/12 04:10:30;;;;;;;17.40;13.50;;;;;;;5.84;93.70;100375.98;108801;1253;37142;-75
2023/01/12 04:13:04;;;;;;;21.10;13.50;;;;;;;5.88;93.76;100379.89;108788;1253;37077;-76
2023/01/12 04:15:37;;;;;;;20.00;14.60;;;;;;;5.90;93.74;100384.51;108777;1274;37347;-74
2023/01/12 04:18:08;;;;;;;18.90;13.50;;;;;;;5.93;93.90;100392.48;108853;1262;37027;-74
2023/01/12 04:20:39;;;;;;;19.90;14.30;;;;;;;5.93;93.94;100391.41;108705;1257;38262;-76
2023/01/12 04:23:10;;;;;;;18.50;13.60;;;;;;;5.96;93.89;100396.92;108814;1272;37076;-75
2023/01/12 04:25:43;;;;;;;17.60;13.40;;;;;;;6.00;93.89;100397.70;108794;1274;36410;-77
2023/01/12 04:28:16;;;;;;;19.40;14.10;;;;;;;6.03;94.02;100403.89;108793;1271;37293;-76
2023/01/12 04:30:47;;;;;;;19.50;14.00;;;;;;;6.04;94.06;100405.75;108815;1255;36329;-76
2023/01/12 04:33:19;;;;;;;19.60;13.40;;;;;;;6.05;93.89;100407.29;108797;1274;36104;-77
2023/01/12 04:35:50;;;;;;;18.70;13.80;;;;;;;6.07;93.80;100411.77;108819;1251;37435;-74
2023/01/12 04:38:21;;;;;;;17.80;14.30;;;;;;;6.10;93.99;100412.23;108807;1255;36845;-74
2023/01/12 04:40:55;;;;;;;20.50;15.20;;;;;;;6.13;93.96;100412.52;108769;1264;39548;-77
2023/01/12 04:43:30;;;;;;;21.90;15.40;;;;;;;6.14;94.00;100412.48;108783;1274;37111;-79
2023/01/12 04:46:09;;;;;;;20.20;14.20;;;;;;;6.14;93.85;100417.34;108852;1263;37195;-74
2023/01/12 04:48:42;;;;;;;20.70;14.80;;;;;;;6.14;93.67;100418.55;108843;1274;36168;-74
2023/01/12 04:51:16;;;;;;;19.90;14.70;;;;;;;6.17;94.04;100417.98;108836;1253;36077;-76
2023/01/12 04:53:48;;;;;;;19.50;14.60;;;;;;;6.20;93.86;100411.16;108738;1274;37183;-76
2023/01/12 04:56:19;;;;;;;22.40;15.70;;;;;;;6.20;93.88;100411.88;108881;1255;36994;-72
2023/01/12 04:58:52;;;;;;;21.70;15.10;;;;;;;6.18;93.71;100409.66;108885;1251;36687;-74
2023/01/12 05:01:22;;;;;;;19.40;13.80;;;;;;;6.16;93.67;100405.53;108748;1253;37067;-76
2023/01/12 05:03:59;;;;;;;18.80;13.80;;;;;;;6.16;93.72;100405.88;108812;1269;36977;-76
2023/01/12 05:06:30;;;;;;;18.50;14.20;;;;;;;6.17;94.01;100408.45;108803;1256;36956;-77
2023/01/12 05:11:50;;;;;;;21.00;14.60;;;;;;;6.24;94.10;100412.83;108791;1253;37013;-75
2023/01/12 05:14:21;;;;;;;20.70;13.70;;;;;;;6.23;93.95;100418.04;108801;1274;37093;-74
2023/01/12 05:16:53;;;;;;;17.50;13.80;;;;;;;6.23;94.00;100415.44;108693;1259;37756;-77
2023/01/12 05:19:26;;;;;;;18.00;13.40;;;;;;;6.27;94.12;100418.33;108817;1274;37317;-79
2023/01/12 05:21:58;;;;;;;19.00;14.70;;;;;;;6.29;94.17;100417.05;108860;1255;37080;-74
2023/01/12 05:24:31;;;;;;;18.10;14.60;;;;;;;6.31;94.21;100417.72;108784;1253;37010;-76
2023/01/12 05:27:03;;;;;;;20.80;14.40;;;;;;;6.32;94.08;100417.20;108720;1274;37528;-77
2023/01/12 05:29:34;;;;;;;18.30;13.60;;;;;;;6.33;93.96;100413.86;108824;1255;36678;-76
2023/01/12 05:32:06;;;;;;;18.30;13.00;;;;;;;6.33;93.98;100413.01;108836;1256;37041;-77
2023/01/12 05:34:37;;;;;;;19.50;13.40;;;;;;;6.34;93.95;100417.98;108845;1255;36430;-77
2023/01/12 05:37:09;;;;;;;18.70;14.60;;;;;;;6.37;94.13;100416.39;108785;1261;37128;-75
2023/01/12 05:39:40;;;;;;;19.70;14.00;;;;;;;6.37;93.82;100421.42;108824;1268;38261;-72
2023/01/12 05:45:03;;;;;;;15.80;13.40;;;;;;;6.37;94.07;100426.63;108872;1274;38503;-75
2023/01/12 05:47:35;;;;;;;16.70;13.40;;;;;;;6.38;94.00;100428.84;108952;1255;36995;-75
2023/01/12 05:50:13;;;;;;;15.50;13.40;;;;;;;6.41;94.12;100430.34;108897;1261;36275;-80
2023/01/12 05:52:50;;;;;;;20.20;15.10;;;;;;;6.45;94.15;100432.16;108871;1255;37481;-75
2023/01/12 05:55:24;;;;;;;17.40;14.50;;;;;;;6.47;94.05;100428.84;108852;1274;37117;-76
2023/01/12 05:57:56;;;;;;;16.60;13.20;;;;;;;6.47;93.91;100429.02;108741;1274;174898;-76
2023/01/12 06:00:27;;;;;;;17.50;13.20;;;;;;;6.46;94.09;100431.96;108875;1258;37401;-74
2023/01/12 06:02:58;;;;;;;17.40;14.10;;;;;;;6.48;94.05;100434.52;108861;1263;37202;-77
2023/01/12 06:05:40;;;;;;;18.40;14.00;;;;;;;6.51;94.21;100434.65;108852;1274;37083;-78
2023/01/12 06:08:14;;;;;;;20.00;15.70;;;;;;;6.55;94.33;100434.21;108898;1251;37316;-79
2023/01/12 06:10:49;;;;;;;18.40;14.20;;;;;;;6.54;94.19;100439.79;108881;1274;37193;-75
2023/01/12 06:16:19;;;;;;;18.40;14.20;;;;;;;6.51;94.16;100432.75;108871;1274;37505;-74
2023/01/12 06:18:52;;;;;;;19.60;14.80;;;;;;;6.54;94.24;100438.04;108918;1269;37093;-75
2023/01/12 06:21:27;;;;;;;19.90;15.70;;;;;;;6.55;94.12;100437.16;108897;1274;36958;-74
2023/01/12 06:24:01;;;;;;;22.10;15.50;;;;;;;6.57;94.32;100435.55;108866;1253;37035;-77
2023/01/12 06:26:33;;;;;;;23.10;15.40;;;;;;;6.57;94.28;100443.36;108955;1262;37085;-78
2023/01/12 06:29:06;;;;;;;19.80;14.50;;;;;;;6.59;94.38;100440.89;108878;1271;37102;-79
2023/01/12 06:31:38;;;;;;;22.90;15.60;;;;;;;6.60;94.29;100441.04;108890;1254;36951;-73
2023/01/12 06:34:12;;;;;;;20.50;14.90;;;;;;;6.61;94.26;100442.41;108914;1262;37075;-73
2023/01/12 06:36:45;;;;;;;20.60;15.10;;;;;;;6.63;94.61;100444.95;108883;1258;37222;-76
2023/01/12 06:39:17;;;;;;;19.30;14.80;;;;;;;6.66;94.54;100447.51;108917;1274;37056;-74
2023/01/12 06:46:33;;;;;;;23.30;16.20;;;;;;;6.68;94.70;100451.26;108882;1273;36914;-77
2023/01/12 06:49:06;;;;;;;22.00;15.90;;;;;;;6.69;94.70;100447.95;108758;1271;36982;-76
2023/01/12 06:51:40;;;;;;;24.40;15.90;;;;;;;6.69;94.68;100449.00;108736;1275;37030;-78
2023/01/12 06:54:12;;;;;;;23.70;16.40;;;;;;;6.69;94.83;100447.78;108747;1275;36150;-79
2023/01/12 06:56:44;;;;;;;20.80;14.70;;;;;;;6.69;94.66;100451.77;108807;1256;36567;-77
2023/01/12 06:59:16;;;;;;;24.70;16.70;;;;;;;6.70;94.60;100452.78;108823;1267;37596;-77
2023/01/12 07:01:48;;;;;;;21.90;15.50;;;;;;;6.76;94.75;100452.87;108803;1274;36030;-75
2023/01/12 07:04:21;;;;;;;22.90;16.40;;;;;;;6.79;94.78;100461.11;108806;1263;37001;-78
2023/01/12 07:06:55;;;;;;;23.50;15.80;;;;;;;6.80;94.83;100466.27;108787;1259;36304;-74
2023/01/12 07:09:43;;;;;;;23.30;15.70;;;;;;;6.82;94.75;100474.23;108856;1267;37361;-75
2023/01/12 07:12:15;;;;;;;22.10;16.00;;;;;;;6.82;94.57;100474.73;108613;1273;37161;-77
2023/01/12 07:14:48;;;;;;;22.00;16.20;;;;;;;6.84;94.42;100479.02;108662;1253;36966;-78
2023/01/12 07:17:20;;;;;;;22.80;16.10;;;;;;;6.87;94.59;100481.75;108669;1256;37567;-77
2023/01/12 07:19:51;;;;;;;23.80;16.30;;;;;;;6.87;94.50;100480.00;108602;1277;37670;-75
2023/01/12 07:22:26;;;;;;;20.50;15.60;;;;;;;6.89;94.52;100485.34;108789;1258;37057;-76
2023/01/12 07:24:58;;;;;;;24.30;15.10;;;;;;;6.92;94.65;100492.91;108749;1258;36966;-75
2023/01/12 07:27:32;;;;;;;20.10;15.30;;;;;;;6.93;94.41;100493.39;108826;1278;36964;-75
2023/01/12 07:30:12;;;;;;;22.60;15.80;;;;;;;6.97;94.46;100488.98;108637;1277;36020;-78
2023/01/12 07:32:44;;;;;;;25.10;17.30;;;;;;;7.01;94.43;100493.77;108443;1262;37709;-78
2023/01/12 07:35:16;;;;;;;22.10;16.10;;;;;;;7.00;94.19;100496.04;108790;1259;37194;-78
2023/01/12 07:37:50;;;;;;;21.30;16.00;;;;;;;7.00;94.08;100500.04;108824;1258;39081;-75
2023/01/12 07:40:22;;;;;;;23.60;15.40;;;;;;;7.01;94.20;100501.05;108332;1276;379303;-76
2023/01/12 07:43:01;;;;;;;21.30;16.10;;;;;;;7.04;94.28;100502.55;108440;1259;36574;-78
2023/01/12 07:45:32;;;;;;;24.80;17.40;;;;;;;7.06;94.32;100501.46;108396;1269;174588;-82
2023/01/12 07:48:05;;;;;;;23.10;17.40;;;;;;;7.09;94.19;100500.51;108543;1257;36990;-81
2023/01/12 07:50:37;;;;;;;24.50;16.10;;;;;;;7.11;94.24;100501.52;108659;1274;37462;-77
2023/01/12 07:53:08;;;;;;;21.90;16.00;;;;;;;7.15;94.29;100505.96;108657;1257;38344;-73
2023/01/12 07:55:42;;;;;;;21.00;16.00;;;;;;;7.18;94.27;100498.41;108607;1276;37373;-76
2023/01/12 07:58:14;;;;;;;24.40;16.80;;;;;;;7.22;94.26;100504.58;108581;1259;38605;-75
2023/01/12 08:00:49;;;;;;;22.40;15.80;;;;;;;7.22;93.93;100510.47;108546;1272;37059;-76
2023/01/12 08:03:25;;;;;;;24.80;16.70;;;;;;;7.19;93.64;100514.38;108489;1276;37003;-75
2023/01/12 08:05:56;;;;;;;19.60;14.80;;;;;;;7.16;93.61;100513.39;108501;1268;37049;-74
2023/01/12 08:08:28;;;;;;;24.50;17.00;;;;;;;7.16;93.62;100513.20;108480;1267;37131;-74
2023/01/12 08:11:04;;;;;;;24.40;16.30;;;;;;;7.18;93.72;100519.23;108653;1273;37730;-76
2023/01/12 08:13:36;;;;;;;23.40;16.00;;;;;;;7.18;93.72;100522.34;108384;1277;37191;-76
2023/01/12 08:16:12;;;;;;;21.30;16.10;;;;;;;7.18;93.67;100523.56;108643;1277;38247;-77
2023/01/12 08:18:46;;;;;;;22.50;15.30;;;;;;;7.18;93.60;100523.39;108397;1272;36740;-76
2023/01/12 08:21:20;;;;;;;22.40;15.90;;;;;;;7.21;93.75;100519.70;108677;1277;37326;-76
2023/01/12 08:23:53;;;;;;;21.70;16.10;;;;;;;7.21;93.54;100522.64;108709;1271;37210;-74
2023/01/12 08:26:26;;;;;;;21.70;15.00;;;;;;;7.21;93.51;100524.38;108615;1266;38577;-75
2023/01/12 08:28:59;;;;;;;20.80;15.40;;;;;;;7.20;93.47;100519.20;108471;1259;37268;-76
2023/01/12 08:31:30;;;;;;;21.70;14.50;;;;;;;7.21;93.35;100524.04;108506;1265;37306;-76
2023/01/12 08:34:02;;;;;;;19.40;14.40;;;;;;;7.24;93.63;100526.91;108375;1278;38229;-76
2023/01/12 08:36:33;;;;;;;22.20;15.20;;;;;;;7.28;93.59;100523.52;108521;1258;37066;-76
2023/01/12 08:39:04;;;;;;;20.20;15.40;;;;;;;7.32;93.54;100517.21;108501;1257;37215;-76
2023/01/12 08:41:36;;;;;;;23.60;15.10;;;;;;;7.35;93.55;100518.00;108634;1276;36652;-77
2023/01/12 08:44:09;;;;;;;20.80;15.50;;;;;;;7.42;93.56;100519.40;108481;1259;37188;-74
2023/01/12 08:46:47;;;;;;;18.70;14.20;;;;;;;7.54;93.57;100524.70;108637;1257;36876;-73
2023/01/12 08:49:20;;;;;;;22.50;14.60;;;;;;;7.72;93.82;100524.80;108664;1275;35969;-76
2023/01/12 08:51:51;;;;;;;21.00;14.40;;;;;;;7.92;93.84;100525.86;108623;1258;38400;-77
2023/01/12 08:54:22;;;;;;;20.20;15.80;;;;;;;8.06;93.09;100527.93;108447;1261;37153;-75
2023/01/12 08:56:53;;;;;;;19.60;14.40;;;;;;;8.22;93.32;100530.14;108635;1265;37292;-75
2023/01/12 08:59:25;;;;;;;19.40;14.50;;;;;;;8.35;92.46;100535.89;108446;1266;37669;-77
2023/01/12 09:01:55;;;;;;;18.40;14.50;;;;;;;8.41;92.18;100532.80;108533;1264;174751;-78
2023/01/12 09:04:27;;;;;;;24.70;15.80;;;;;;;8.52;91.69;100529.38;108512;1259;36969;-74
2023/01/12 09:06:58;;;;;;;21.80;15.40;;;;;;;8.58;91.02;100527.83;108593;1261;37295;-75
2023/01/12 09:09:29;;;;;;;20.00;14.20;;;;;;;8.70;90.57;100530.96;108645;1253;37163;-76
2023/01/12 09:11:59;;;;;;;18.70;13.40;;;;;;;8.91;90.53;100531.60;108468;1276;38114;-77
2023/01/12 09:14:32;;;;;;;20.40;13.60;;;;;;;9.10;89.69;100523.92;108643;1269;38717;-73
2023/01/12 09:17:08;;;;;;;19.90;13.20;;;;;;;9.24;88.63;100518.80;108622;1253;36962;-73
2023/01/12 09:19:44;;;;;;;20.40;13.30;;;;;;;9.29;88.03;100518.48;108604;1253;36871;-76
2023/01/12 09:22:18;;;;;;;19.10;13.30;;;;;;;9.23;87.20;100519.54;108405;1277;36306;-77
2023/01/12 09:24:50;;;;;;;20.10;14.10;;;;;;;9.11;86.96;100519.34;108432;1262;37003;-75
2023/01/12 09:27:28;;;;;;;17.20;12.50;;;;;;;9.08;86.80;100515.47;108654;1259;37136;-73
2023/01/12 09:30:09;;;;;;;16.80;11.60;;;;;;;9.13;86.73;100511.66;108513;1276;36108;-75
2023/01/12 09:32:42;;;;;;;17.10;11.50;;;;;;;9.25;86.92;100509.36;108689;1257;38973;-76
2023/01/12 09:35:17;;;;;;;16.90;11.50;;;;;;;9.39;86.65;100507.04;108698;1259;37073;-77
2023/01/12 09:37:50;;;;;;;15.50;11.60;;;;;;;9.71;86.76;100503.23;108664;1277;37208;-77
2023/01/12 09:40:23;;;;;;;15.00;11.50;;;;;;;10.05;86.13;100498.09;108698;1277;37004;-78
2023/01/12 09:48:43;;;;;;;18.00;10.30;;;;;;;10.81;81.59;100485.12;108665;1258;36184;-73
2023/01/12 09:51:24;;;;;;;14.50;9.90;;;;;;;11.15;82.23;100486.64;108494;1261;37306;-76
2023/01/12 09:53:58;;;;;;;14.50;9.70;;;;;;;11.54;81.22;100487.23;108517;1277;174373;-77
2023/01/12 09:56:34;;;;;;;14.10;9.20;;;;;;;11.95;80.33;100479.28;108466;1264;37557;-75
2023/01/12 09:59:33;;;;;;;15.40;8.90;;;;;;;12.27;78.73;100471.41;108620;1255;37006;-74
2023/01/12 10:02:10;;;;;;;13.00;8.10;;;;;;;12.68;78.12;100468.76;108281;1277;174415;-72
2023/01/12 10:04:45;;;;;;;11.90;8.50;;;;;;;13.03;76.36;100464.02;108633;1277;37205;-75
2023/01/12 10:07:21;;;;;;;10.50;7.20;;;;;;;13.37;75.73;100455.38;108424;1277;36078;-75
2023/01/12 10:09:57;;;;;;;9.80;7.40;;;;;;;13.67;74.74;100459.57;108617;1277;36967;-75
2023/01/12 10:12:34;;;;;;;12.30;7.50;;;;;;;13.91;73.43;100456.42;108666;1255;37135;-74
2023/01/12 10:15:33;;;;;;;10.00;7.00;;;;;;;14.11;72.33;100454.20;108682;1259;37174;-76
2023/01/12 10:18:12;;;;;;;12.70;7.90;;;;;;;14.27;70.41;100455.44;108616;1254;37237;-75
2023/01/12 10:20:45;;;;;;;10.90;6.90;;;;;;;14.47;70.82;100453.52;108683;1272;38588;-75
2023/01/12 10:23:23;;;;;;;10.40;6.70;;;;;;;14.69;70.14;100454.65;108653;1277;37213;-73
2023/01/12 10:26:00;;;;;;;9.30;6.10;;;;;;;14.86;68.59;100460.25;108502;1259;37026;-76
2023/01/12 10:28:35;;;;;;;8.70;6.40;;;;;;;14.96;67.65;100458.98;108576;1268;37459;-74
2023/01/12 10:31:09;;;;;;;10.60;5.80;;;;;;;15.06;67.54;100451.55;108661;1277;37112;-78
2023/01/12 10:33:43;;;;;;;7.60;5.90;;;;;;;15.04;67.14;100448.55;108629;1275;38252;-77
2023/01/12 10:36:19;;;;;;;12.10;6.10;;;;;;;14.80;64.81;100446.36;108494;1271;37294;-77
2023/01/12 10:39:02;;;;;;;9.60;5.50;;;;;;;14.43;65.32;100443.23;108526;1277;37126;-77
2023/01/12 10:41:33;;;;;;;10.50;5.60;;;;;;;14.02;66.11;100434.63;108410;1277;174597;-78
2023/01/12 10:44:16;;;;;;;8.60;6.00;;;;;;;13.66;65.58;100436.63;108444;1262;37133;-73
2023/01/12 10:46:49;;;;;;;11.60;5.70;;;;;;;13.27;66.48;100435.73;108604;1256;36959;-72
2023/01/12 10:49:22;;;;;;;8.70;5.70;;;;;;;12.88;66.02;100430.89;108690;1259;36989;-74
2023/01/12 10:51:59;;;;;;;8.60;5.50;;;;;;;12.50;66.67;100427.91;108604;1256;37327;-73
2023/01/12 10:54:32;;;;;;;9.40;5.20;;;;;;;12.12;66.50;100424.35;108643;1277;38412;-76
2023/01/12 10:57:06;;;;;;;10.50;5.20;;;;;;;11.73;66.68;100424.23;108596;1259;37074;-76
2023/01/12 10:59:39;;;;;;;10.50;5.30;;;;;;;11.39;67.73;100426.86;108533;1261;37433;-75
2023/01/12 11:02:17;;;;;;;7.90;5.10;;;;;;;11.13;68.64;100422.48;108591;1277;38455;-75
2023/01/12 11:04:50;;;;;;;9.00;5.20;;;;;;;10.88;68.93;100418.55;108631;1275;37035;-78
2023/01/12 11:07:24;;;;;;;10.80;5.50;;;;;;;10.70;69.85;100416.48;108583;1269;36266;-77
2023/01/12 11:09:56;;;;;;;8.80;5.10;;;;;;;10.52;69.92;100412.09;108590;1255;37286;-74
2023/01/12 11:12:36;;;;;;;11.50;5.00;;;;;;;10.37;70.55;100406.69;108567;1269;37353;-77
2023/01/12 11:15:17;;;;;;;9.90;5.10;;;;;;;10.21;70.94;100404.11;108582;1259;37175;-74
2023/01/12 11:17:58;;;;;;;10.50;5.60;;;;;;;10.08;71.38;100399.87;108646;1275;37163;-73
2023/01/12 11:20:32;;;;;;;8.60;5.20;;;;;;;9.94;71.52;100397.92;108654;1277;36003;-77
2023/01/12 11:23:05;;;;;;;10.30;5.00;;;;;;;9.84;71.80;100399.30;108455;1271;36365;-75
2023/01/12 11:25:39;;;;;;;9.20;4.60;;;;;;;9.75;72.03;100400.13;108648;1259;36974;-74
2023/01/12 11:28:14;;;;;;;10.90;5.20;;;;;;;9.71;72.28;100399.77;108620;1275;37621;-75
2023/01/12 11:30:52;;;;;;;7.50;4.90;;;;;;;9.63;72.34;100398.98;108512;1267;37230;-72
2023/01/12 11:33:27;;;;;;;13.00;6.10;;;;;;;9.57;72.72;100394.83;108567;1266;37352;-74
2023/01/12 11:36:02;;;;;;;10.20;6.80;;;;;;;9.52;72.96;100394.30;108599;1260;37002;-75
2023/01/12 11:38:39;;;;;;;10.70;6.70;;;;;;;9.45;73.40;100391.93;108316;1270;37710;-74
2023/01/12 11:41:21;;;;;;;11.50;6.50;;;;;;;9.39;73.71;100389.34;108557;1258;187204;-76
2023/01/12 11:43:59;;;;;;;13.60;7.50;;;;;;;9.35;74.10;100385.63;108621;1260;36131;-75
2023/01/12 11:46:35;;;;;;;13.10;7.30;;;;;;;9.32;74.41;100377.91;108531;1259;36029;-74
2023/01/12 11:49:14;;;;;;;11.30;7.20;;;;;;;9.28;74.65;100382.55;108528;1262;37139;-75
2023/01/12 11:51:45;;;;;;;13.60;7.70;;;;;;;9.22;74.86;100381.35;108418;1259;37667;-74
2023/01/12 11:54:17;;;;;;;15.60;7.90;;;;;;;9.17;75.08;100379.59;108560;1258;37333;-75
2023/01/12 11:57:17;;;;;;;13.00;7.50;;;;;;;9.11;75.37;100377.01;108541;1259;37096;-77
2023/01/12 11:59:58;;;;;;;13.80;8.60;;;;;;;9.05;75.74;100377.55;108452;1263;37541;-74
2023/01/12 12:02:36;;;;;;;12.80;8.10;;;;;;;9.01;76.04;100380.45;108536;1264;37179;-73
2023/01/12 12:05:22;;;;;;;16.90;8.50;;;;;;;8.99;76.22;100382.60;108570;1277;36167;-74
2023/01/12 12:08:07;;;;;;;13.50;8.10;;;;;;;8.92;76.19;100381.61;108578;1259;37368;-74
2023/01/12 12:10:45;;;;;;;12.30;7.90;;;;;;;8.84;76.31;100379.77;108641;1259;37744;-74